createdAt,value
2023-03-29T00:01:35.737Z,95.16
2023-03-29T00:04:04.981Z,96.26
2023-03-29T00:06:33.464Z,95.66
2023-03-29T00:09:05.270Z,95.63
2023-03-29T00:11:33.825Z,94.93
2023-03-29T00:14:03.268Z,95.36
2023-03-29T00:16:31.350Z,95.68
2023-03-29T00:18:59.432Z,95.89
2023-03-29T00:21:27.434Z,95.36
2023-03-29T00:23:55.500Z,96.37
2023-03-29T00:26:23.549Z,96.06
2023-03-29T00:28:51.489Z,96.52
2023-03-29T00:31:21.197Z,95.67
2023-03-29T00:33:49.166Z,95.63
2023-03-29T00:36:17.331Z,96.70
2023-03-29T00:38:45.362Z,96.10
2023-03-29T00:41:13.437Z,96.73
2023-03-29T00:44:00.012Z,96.83
2023-03-29T00:46:31.167Z,96.80
2023-03-29T00:49:04.560Z,96.24
2023-03-29T00:51:37.358Z,97.01
2023-03-29T00:54:14.866Z,95.92
2023-03-29T00:56:49.762Z,95.33
2023-03-29T00:59:21.945Z,95.78
2023-03-29T01:01:55.300Z,96.25
2023-03-29T01:04:30.030Z,96.31
2023-03-29T01:07:02.046Z,95.79
2023-03-29T01:09:33.494Z,95.70
2023-03-29T01:12:05.594Z,95.80
2023-03-29T01:14:40.503Z,96.22
2023-03-29T01:17:14.758Z,95.60
2023-03-29T01:19:47.670Z,96.47
2023-03-29T01:22:26.052Z,95.70
2023-03-29T01:25:05.438Z,95.90
2023-03-29T01:27:52.012Z,95.19
2023-03-29T01:30:25.956Z,94.94
2023-03-29T01:32:59.309Z,94.69
2023-03-29T01:35:34.253Z,94.00
2023-03-29T01:38:07.312Z,94.39
2023-03-29T01:40:35.856Z,94.12
2023-03-29T01:43:13.351Z,94.18
2023-03-29T01:45:47.822Z,94.07
2023-03-29T01:48:20.862Z,92.75
2023-03-29T01:50:51.809Z,93.53
2023-03-29T01:53:27.585Z,92.44
2023-03-29T01:55:58.061Z,92.71
2023-03-29T01:58:33.939Z,92.54
2023-03-29T02:01:05.846Z,92.70
2023-03-29T02:03:42.376Z,91.98
2023-03-29T02:06:13.967Z,91.34
2023-03-29T02:08:43.670Z,91.75
2023-03-29T02:11:11.732Z,90.96
2023-03-29T02:13:41.566Z,91.50
2023-03-29T02:16:12.261Z,90.42
2023-03-29T02:18:42.215Z,91.79
2023-03-29T02:21:14.325Z,91.46
2023-03-29T02:23:47.568Z,91.85
2023-03-29T02:26:15.999Z,91.13
2023-03-29T02:28:45.774Z,91.01
2023-03-29T02:31:24.924Z,91.28
2023-03-29T02:34:00.737Z,90.54
2023-03-29T02:36:34.181Z,90.55
2023-03-29T02:39:05.938Z,90.42
2023-03-29T02:41:36.210Z,90.72
2023-03-29T02:44:09.322Z,91.19
2023-03-29T02:46:38.432Z,89.97
2023-03-29T02:49:06.704Z,89.93
2023-03-29T02:51:37.746Z,89.80
2023-03-29T02:54:10.844Z,89.72
2023-03-29T02:56:46.059Z,90.55
2023-03-29T02:59:16.714Z,90.77
2023-03-29T03:01:44.908Z,90.51
2023-03-29T03:04:14.217Z,89.48
2023-03-29T03:06:42.490Z,89.73
2023-03-29T03:09:11.769Z,89.55
2023-03-29T03:11:42.429Z,89.50
2023-03-29T03:14:10.982Z,89.65
2023-03-29T03:16:40.487Z,89.86
2023-03-29T03:19:09.237Z,88.30
2023-03-29T03:21:37.778Z,88.94
2023-03-29T03:24:06.293Z,88.95
2023-03-29T03:26:35.955Z,88.74
2023-03-29T03:29:04.152Z,88.91
2023-03-29T03:31:54.269Z,88.64
2023-03-29T03:34:58.613Z,89.38
2023-03-29T03:37:28.065Z,89.54
2023-03-29T03:39:56.680Z,89.12
2023-03-29T03:42:28.201Z,88.39
2023-03-29T03:44:57.419Z,88.73
2023-03-29T03:47:46.076Z,89.51
2023-03-29T03:50:43.456Z,89.19
2023-03-29T03:53:11.785Z,89.15
2023-03-29T03:56:08.758Z,89.18
2023-03-29T03:58:45.959Z,89.02
2023-03-29T04:01:14.563Z,88.66
2023-03-29T04:03:53.829Z,87.45
2023-03-29T04:06:23.323Z,87.50
2023-03-29T04:09:49.748Z,88.02
2023-03-29T04:12:43.597Z,88.73
2023-03-29T04:15:12.153Z,88.54
2023-03-29T04:17:45.598Z,88.88
2023-03-29T04:20:35.315Z,88.62
2023-03-29T04:23:03.628Z,88.34
2023-03-29T04:25:31.777Z,88.19
2023-03-29T04:28:00.703Z,88.67
2023-03-29T04:30:48.220Z,88.88
2023-03-29T04:33:21.095Z,88.04
2023-03-29T04:35:57.019Z,89.03
2023-03-29T04:38:25.090Z,88.98
2023-03-29T04:40:55.289Z,88.65
2023-03-29T04:43:46.510Z,88.60
2023-03-29T04:46:27.935Z,88.67
2023-03-29T04:49:05.812Z,89.30
2023-03-29T04:51:41.407Z,88.75
2023-03-29T04:54:11.040Z,88.77
2023-03-29T04:56:56.783Z,89.02
2023-03-29T04:59:35.710Z,89.99
2023-03-29T05:02:09.665Z,89.24
2023-03-29T05:04:41.347Z,89.13
2023-03-29T05:07:17.656Z,89.22
2023-03-29T05:09:46.008Z,88.38
2023-03-29T05:12:14.083Z,87.91
2023-03-29T05:15:09.556Z,87.17
2023-03-29T05:17:37.796Z,87.85
2023-03-29T05:20:11.221Z,87.43
2023-03-29T05:22:40.949Z,87.45
2023-03-29T05:25:13.306Z,87.73
2023-03-29T05:27:43.255Z,87.98
2023-03-29T05:30:13.376Z,87.57
2023-03-29T05:32:50.699Z,88.51
2023-03-29T05:35:26.117Z,88.56
2023-03-29T05:37:56.593Z,88.17
2023-03-29T05:40:26.242Z,89.68
2023-03-29T05:43:14.224Z,88.67
2023-03-29T05:45:42.113Z,89.12
2023-03-29T05:48:10.599Z,88.37
2023-03-29T05:50:43.810Z,88.08
2023-03-29T05:53:14.574Z,87.92
2023-03-29T05:55:42.549Z,87.91
2023-03-29T05:58:13.281Z,88.57
2023-03-29T06:00:43.783Z,88.70
2023-03-29T06:03:29.843Z,88.41
2023-03-29T06:06:02.486Z,89.31
2023-03-29T06:08:32.692Z,88.86
2023-03-29T06:11:19.601Z,87.86
2023-03-29T06:14:06.279Z,88.04
2023-03-29T06:16:36.415Z,88.94
2023-03-29T06:19:05.368Z,88.43
2023-03-29T06:21:34.085Z,88.52
2023-03-29T06:24:05.488Z,88.03
2023-03-29T06:26:39.141Z,86.91
2023-03-29T06:29:08.490Z,87.61
2023-03-29T06:31:37.466Z,87.50
2023-03-29T06:34:08.313Z,87.14
2023-03-29T06:36:36.553Z,86.85
2023-03-29T06:39:08.798Z,87.04
2023-03-29T06:42:05.255Z,86.94
2023-03-29T06:44:56.666Z,87.71
2023-03-29T06:47:30.715Z,87.13
2023-03-29T06:49:59.154Z,87.14
2023-03-29T06:52:42.594Z,86.74
2023-03-29T06:55:12.930Z,86.50
2023-03-29T06:57:41.187Z,85.65
2023-03-29T07:00:15.633Z,86.16
2023-03-29T07:03:06.578Z,85.13
2023-03-29T07:05:36.350Z,84.98
2023-03-29T07:08:16.396Z,84.26
2023-03-29T07:11:12.637Z,83.98
2023-03-29T07:13:49.108Z,84.11
2023-03-29T07:16:20.271Z,83.36
2023-03-29T07:19:15.340Z,83.60
2023-03-29T07:22:06.561Z,83.44
2023-03-29T07:24:45.770Z,83.25
2023-03-29T07:27:15.481Z,83.74
2023-03-29T07:29:43.739Z,83.92
2023-03-29T07:32:11.778Z,84.04
2023-03-29T07:34:46.324Z,83.72
2023-03-29T07:37:22.273Z,83.42
2023-03-29T07:39:51.967Z,82.91
2023-03-29T07:42:42.300Z,82.75
2023-03-29T07:45:14.373Z,82.44
2023-03-29T07:47:56.550Z,81.76
2023-03-29T07:50:24.931Z,81.52
2023-03-29T07:52:56.912Z,81.53
2023-03-29T07:55:25.121Z,79.62
2023-03-29T07:58:03.243Z,79.33
2023-03-29T08:00:34.137Z,79.33
2023-03-29T08:03:22.848Z,79.37
2023-03-29T08:05:51.552Z,78.81
2023-03-29T08:08:19.697Z,78.83
2023-03-29T08:10:54.844Z,79.23
2023-03-29T08:13:33.322Z,78.78
2023-03-29T08:16:20.123Z,78.25
2023-03-29T08:18:55.391Z,77.72
2023-03-29T08:21:26.985Z,78.82
2023-03-29T08:23:55.184Z,77.84
2023-03-29T08:26:28.454Z,76.95
2023-03-29T08:29:01.195Z,76.77
2023-03-29T08:31:29.399Z,74.64
2023-03-29T08:33:58.135Z,75.70
2023-03-29T08:36:44.803Z,74.80
2023-03-29T08:39:22.306Z,74.01
2023-03-29T08:42:21.970Z,74.58
2023-03-29T08:45:01.318Z,75.07
2023-03-29T08:47:40.052Z,75.46
2023-03-29T08:50:14.832Z,74.92
2023-03-29T08:52:52.852Z,75.01
2023-03-29T08:55:43.496Z,73.75
2023-03-29T08:58:41.300Z,73.82
2023-03-29T09:01:12.065Z,73.82
2023-03-29T09:04:05.113Z,73.61
2023-03-29T09:06:57.849Z,73.61
2023-03-29T09:09:36.521Z,73.34
2023-03-29T09:12:24.407Z,73.78
2023-03-29T09:15:04.590Z,74.18
2023-03-29T09:17:44.560Z,72.96
2023-03-29T09:20:28.214Z,73.03
2023-03-29T09:23:08.855Z,73.30
2023-03-29T09:26:02.119Z,73.49
2023-03-29T09:28:53.242Z,72.74
2023-03-29T09:31:23.710Z,72.57
2023-03-29T09:33:58.989Z,72.81
2023-03-29T09:36:47.509Z,72.93
2023-03-29T09:39:17.606Z,73.30
2023-03-29T09:41:55.840Z,72.97
2023-03-29T09:44:31.305Z,72.62
2023-03-29T09:47:10.918Z,72.52
2023-03-29T09:49:47.093Z,72.10
2023-03-29T09:52:18.228Z,71.90
2023-03-29T09:54:55.198Z,72.42
2023-03-29T09:57:38.382Z,71.45
2023-03-29T10:00:10.749Z,71.21
2023-03-29T10:02:52.585Z,72.15
2023-03-29T10:05:27.723Z,71.23
2023-03-29T10:08:01.141Z,70.87
2023-03-29T10:10:31.892Z,71.09
2023-03-29T10:13:02.670Z,71.04
2023-03-29T10:15:31.600Z,69.89
2023-03-29T10:18:00.911Z,69.38
2023-03-29T10:20:30.992Z,68.97
2023-03-29T10:23:00.746Z,68.36
2023-03-29T10:25:31.654Z,68.88
2023-03-29T10:28:07.474Z,68.86
2023-03-29T10:30:38.072Z,68.92
2023-03-29T10:33:09.007Z,67.90
2023-03-29T10:35:42.855Z,67.58
2023-03-29T10:38:14.982Z,67.84
2023-03-29T10:40:45.604Z,67.04
2023-03-29T10:43:15.896Z,66.62
2023-03-29T10:45:44.797Z,66.44
2023-03-29T10:48:14.986Z,66.65
2023-03-29T10:50:49.612Z,64.60
2023-03-29T10:53:25.510Z,64.16
2023-03-29T10:56:09.061Z,64.10
2023-03-29T10:58:49.049Z,64.79
2023-03-29T11:01:25.316Z,63.29
2023-03-29T11:04:06.097Z,63.16
2023-03-29T11:06:41.017Z,62.78
2023-03-29T11:09:18.752Z,61.25
2023-03-29T11:12:15.744Z,61.47
2023-03-29T11:14:56.463Z,61.27
2023-03-29T11:17:40.878Z,62.72
2023-03-29T11:20:25.441Z,61.84
2023-03-29T11:23:07.394Z,62.71
2023-03-29T11:25:50.745Z,61.60
2023-03-29T11:28:27.253Z,63.02
2023-03-29T11:31:06.199Z,61.55
2023-03-29T11:33:43.955Z,61.19
2023-03-29T11:36:19.167Z,61.30
2023-03-29T11:39:00.547Z,59.73
2023-03-29T11:41:32.866Z,58.40
2023-03-29T11:44:05.060Z,57.92
2023-03-29T11:46:37.442Z,59.23
2023-03-29T11:49:11.978Z,58.80
2023-03-29T11:51:45.989Z,59.15
2023-03-29T11:54:22.849Z,59.77
2023-03-29T11:56:55.987Z,60.34
2023-03-29T11:59:29.682Z,59.35
2023-03-29T12:02:03.367Z,60.12
2023-03-29T12:04:37.112Z,59.24
2023-03-29T12:07:14.146Z,59.27
2023-03-29T12:09:50.306Z,59.34
2023-03-29T12:12:23.344Z,58.97
2023-03-29T12:15:01.136Z,58.82
2023-03-29T12:17:33.542Z,57.56
2023-03-29T12:20:08.140Z,57.24
2023-03-29T12:22:41.387Z,58.01
2023-03-29T12:25:18.769Z,54.76
2023-03-29T12:27:58.297Z,54.28
2023-03-29T12:30:39.857Z,53.69
2023-03-29T12:33:36.465Z,54.06
2023-03-29T12:36:45.821Z,54.39
2023-03-29T12:39:50.264Z,53.38
2023-03-29T12:42:46.116Z,52.08
2023-03-29T12:45:48.256Z,53.56
2023-03-29T12:48:19.896Z,53.48
2023-03-29T12:50:51.678Z,55.02
2023-03-29T12:53:24.357Z,52.83
2023-03-29T12:56:08.581Z,52.86
2023-03-29T12:58:53.093Z,52.91
2023-03-29T13:01:28.341Z,52.10
2023-03-29T13:04:18.697Z,49.27
2023-03-29T13:07:17.139Z,52.69
2023-03-29T13:09:51.153Z,52.53
2023-03-29T13:12:26.771Z,53.86
2023-03-29T13:14:59.051Z,52.67
2023-03-29T13:17:36.070Z,51.04
2023-03-29T13:20:32.238Z,52.85
2023-03-29T13:23:17.804Z,52.88
2023-03-29T13:25:58.328Z,51.70
2023-03-29T13:28:38.228Z,49.44
2023-03-29T13:31:30.847Z,51.33
2023-03-29T13:34:10.160Z,50.79
2023-03-29T13:36:54.908Z,51.40
2023-03-29T13:39:24.770Z,51.52
2023-03-29T13:41:54.463Z,51.29
2023-03-29T13:44:30.267Z,52.27
2023-03-29T13:47:16.366Z,52.22
2023-03-29T13:49:51.616Z,51.83
2023-03-29T13:52:25.604Z,53.12
2023-03-29T13:54:58.532Z,52.76
2023-03-29T13:57:34.852Z,53.15
2023-03-29T14:00:11.763Z,53.21
2023-03-29T14:02:49.178Z,52.55
2023-03-29T14:05:20.837Z,52.42
2023-03-29T14:07:52.629Z,51.86
2023-03-29T14:10:25.752Z,51.76
2023-03-29T14:12:54.462Z,52.69
2023-03-29T14:15:25.697Z,53.46
2023-03-29T14:18:00.783Z,53.08
2023-03-29T14:20:29.098Z,52.17
2023-03-29T14:22:57.094Z,52.67
2023-03-29T14:25:27.302Z,51.65
2023-03-29T14:27:55.463Z,50.99
2023-03-29T14:30:27.423Z,52.36
2023-03-29T14:32:57.009Z,52.09
2023-03-29T14:35:33.241Z,51.44
2023-03-29T14:38:03.913Z,51.35
2023-03-29T14:40:32.581Z,52.36
2023-03-29T14:43:05.334Z,52.08
2023-03-29T14:45:33.925Z,52.11
2023-03-29T14:48:02.247Z,52.38
2023-03-29T14:50:32.846Z,52.78
2023-03-29T14:53:03.120Z,53.66
2023-03-29T14:55:31.623Z,53.50
2023-03-29T14:58:00.306Z,54.37
2023-03-29T15:00:31.160Z,54.26
2023-03-29T15:03:01.583Z,53.16
2023-03-29T15:05:38.337Z,54.33
2023-03-29T15:08:10.335Z,54.56
2023-03-29T15:10:41.781Z,54.26
2023-03-29T15:13:17.664Z,54.54
2023-03-29T15:15:46.347Z,55.68
2023-03-29T15:18:17.613Z,55.48
2023-03-29T15:20:47.030Z,55.72
2023-03-29T15:23:24.421Z,56.62
2023-03-29T15:25:55.866Z,57.19
2023-03-29T15:28:28.296Z,57.39
2023-03-29T15:31:07.780Z,57.75
2023-03-29T15:33:37.899Z,57.54
2023-03-29T15:36:10.080Z,57.57
2023-03-29T15:38:44.513Z,57.47
2023-03-29T15:41:14.313Z,57.50
2023-03-29T15:43:42.766Z,58.11
2023-03-29T15:46:13.538Z,57.40
2023-03-29T15:48:42.223Z,57.59
2023-03-29T15:51:13.021Z,57.65
2023-03-29T15:53:41.569Z,57.31
2023-03-29T15:56:15.747Z,58.09
2023-03-29T15:58:44.247Z,59.83
2023-03-29T16:01:23.658Z,63.14
2023-03-29T16:03:51.888Z,65.98
2023-03-29T16:06:22.306Z,66.59
2023-03-29T16:08:50.405Z,66.63
2023-03-29T16:11:18.333Z,66.31
2023-03-29T16:13:46.377Z,66.56
2023-03-29T16:16:15.281Z,65.90
2023-03-29T16:18:43.131Z,65.48
2023-03-29T16:21:14.320Z,64.76
2023-03-29T16:23:43.738Z,64.77
2023-03-29T16:26:13.149Z,65.25
2023-03-29T16:28:41.469Z,64.77
2023-03-29T16:31:10.898Z,65.12
2023-03-29T16:33:38.960Z,65.15
2023-03-29T16:36:07.946Z,65.14
2023-03-29T16:38:35.814Z,65.42
2023-03-29T16:41:05.357Z,66.01
2023-03-29T16:43:33.181Z,66.62
2023-03-29T16:46:01.130Z,67.47
2023-03-29T16:48:29.151Z,68.06
2023-03-29T16:50:57.171Z,68.84
2023-03-29T16:53:25.028Z,69.15
2023-03-29T16:55:53.195Z,69.69
2023-03-29T16:58:23.060Z,70.40
2023-03-29T17:00:51.901Z,70.55
2023-03-29T17:03:20.072Z,70.29
2023-03-29T17:05:48.748Z,70.87
2023-03-29T17:08:21.126Z,71.30
2023-03-29T17:10:54.061Z,71.14
2023-03-29T17:13:24.469Z,72.04
2023-03-29T17:15:53.730Z,71.89
2023-03-29T17:18:22.354Z,72.26
2023-03-29T17:20:50.935Z,72.54
2023-03-29T17:23:19.080Z,73.03
2023-03-29T17:25:47.009Z,72.69
2023-03-29T17:28:14.928Z,73.15
2023-03-29T17:30:46.112Z,73.20
2023-03-29T17:33:14.375Z,73.41
2023-03-29T17:35:43.130Z,73.47
2023-03-29T17:38:11.727Z,74.02
2023-03-29T17:40:39.721Z,74.06
2023-03-29T17:43:07.564Z,74.33
2023-03-29T17:45:35.558Z,74.13
2023-03-29T17:48:06.566Z,74.94
2023-03-29T17:50:34.751Z,75.53
2023-03-29T17:53:02.771Z,76.18
2023-03-29T17:55:30.743Z,76.06
2023-03-29T17:57:58.588Z,76.06
2023-03-29T18:00:26.745Z,76.70
2023-03-29T18:02:55.027Z,77.12
2023-03-29T18:05:24.627Z,77.47
2023-03-29T18:07:52.743Z,77.48
2023-03-29T18:10:20.629Z,77.93
2023-03-29T18:12:48.566Z,77.87
2023-03-29T18:15:16.769Z,77.73
2023-03-29T18:17:44.932Z,78.43
2023-03-29T18:20:13.687Z,78.43
2023-03-29T18:22:44.578Z,78.60
2023-03-29T18:25:12.457Z,79.38
2023-03-29T18:27:40.639Z,79.27
2023-03-29T18:30:09.856Z,79.61
2023-03-29T18:32:37.775Z,79.78
2023-03-29T18:35:06.758Z,80.31
2023-03-29T18:37:34.710Z,80.32
2023-03-29T18:40:06.811Z,80.45
2023-03-29T18:42:34.714Z,80.61
2023-03-29T18:45:02.542Z,81.03
2023-03-29T18:47:30.772Z,81.05
2023-03-29T18:49:58.900Z,81.12
2023-03-29T18:52:27.673Z,81.53
2023-03-29T18:54:55.834Z,81.64
2023-03-29T18:57:25.314Z,82.08
2023-03-29T18:59:53.143Z,82.58
2023-03-29T19:02:21.116Z,82.58
2023-03-29T19:04:49.071Z,83.21
2023-03-29T19:07:17.737Z,83.58
2023-03-29T19:09:46.000Z,83.58
2023-03-29T19:12:13.773Z,84.10
2023-03-29T19:14:42.928Z,84.04
2023-03-29T19:17:10.914Z,84.05
2023-03-29T19:19:38.785Z,84.61
2023-03-29T19:22:06.677Z,84.50
2023-03-29T19:24:34.623Z,84.52
2023-03-29T19:27:03.245Z,84.92
2023-03-29T19:29:31.420Z,84.61
2023-03-29T19:32:00.872Z,84.53
2023-03-29T19:34:29.682Z,84.60
2023-03-29T19:36:58.488Z,84.77
2023-03-29T19:39:29.326Z,85.35
2023-03-29T19:41:57.653Z,85.37
2023-03-29T19:44:25.578Z,85.74
2023-03-29T19:46:53.632Z,85.85
2023-03-29T19:49:23.276Z,85.86
2023-03-29T19:51:54.401Z,85.98
2023-03-29T19:54:22.277Z,85.90
2023-03-29T19:56:52.551Z,86.09
2023-03-29T19:59:20.695Z,86.39
2023-03-29T20:01:50.702Z,86.52
2023-03-29T20:04:18.870Z,86.96
2023-03-29T20:06:48.125Z,87.30
2023-03-29T20:09:16.170Z,87.46
2023-03-29T20:11:46.553Z,87.95
2023-03-29T20:14:14.587Z,87.92
2023-03-29T20:16:43.466Z,88.56
2023-03-29T20:19:14.125Z,88.53
2023-03-29T20:21:42.129Z,88.05
2023-03-29T20:24:12.503Z,87.91
2023-03-29T20:26:40.341Z,88.58
2023-03-29T20:29:08.253Z,88.80
2023-03-29T20:31:36.205Z,89.15
2023-03-29T20:34:03.998Z,89.34
2023-03-29T20:36:31.974Z,89.45
2023-03-29T20:39:01.205Z,89.34
2023-03-29T20:41:31.401Z,89.60
2023-03-29T20:43:59.940Z,89.64
2023-03-29T20:46:33.276Z,90.01
2023-03-29T20:49:02.266Z,89.81
2023-03-29T20:51:31.846Z,89.71
2023-03-29T20:54:04.738Z,90.13
2023-03-29T20:56:37.363Z,90.10
2023-03-29T20:59:05.819Z,90.24
2023-03-29T21:01:34.988Z,90.47
2023-03-29T21:04:02.983Z,90.77
2023-03-29T21:06:31.555Z,90.42
2023-03-29T21:08:59.511Z,89.62
2023-03-29T21:11:27.733Z,89.81
2023-03-29T21:13:57.011Z,89.78
2023-03-29T21:16:25.628Z,89.51
2023-03-29T21:18:54.281Z,89.34
2023-03-29T21:21:23.026Z,89.99
2023-03-29T21:23:51.305Z,90.18
2023-03-29T21:26:19.604Z,90.55
2023-03-29T21:28:48.624Z,90.32
2023-03-29T21:31:18.046Z,90.13
2023-03-29T21:33:46.152Z,89.74
2023-03-29T21:36:14.056Z,89.61
2023-03-29T21:38:42.141Z,89.97
2023-03-29T21:41:11.928Z,90.32
2023-03-29T21:43:40.369Z,90.30
2023-03-29T21:46:08.769Z,90.30
2023-03-29T21:48:38.468Z,90.19
2023-03-29T21:51:07.138Z,90.08
2023-03-29T21:53:35.407Z,89.63
2023-03-29T21:56:03.486Z,89.45
2023-03-29T21:58:31.590Z,89.27
2023-03-29T22:00:59.415Z,89.03
2023-03-29T22:03:27.479Z,88.90
2023-03-29T22:06:02.362Z,88.93
2023-03-29T22:08:30.804Z,88.59
2023-03-29T22:10:58.839Z,88.32
2023-03-29T22:13:29.472Z,87.83
2023-03-29T22:15:59.125Z,87.89
2023-03-29T22:18:27.974Z,87.92
2023-03-29T22:20:55.952Z,87.93
2023-03-29T22:23:25.845Z,87.61
2023-03-29T22:25:53.656Z,87.64
2023-03-29T22:28:21.561Z,87.63
2023-03-29T22:30:49.390Z,87.70
2023-03-29T22:33:17.270Z,87.44
2023-03-29T22:35:45.128Z,86.71
2023-03-29T22:38:12.972Z,86.56
2023-03-29T22:40:42.367Z,86.15
2023-03-29T22:43:10.212Z,86.15
2023-03-29T22:45:38.094Z,86.15
2023-03-29T22:48:06.249Z,86.20
2023-03-29T22:50:34.163Z,85.41
2023-03-29T22:53:02.024Z,85.27
2023-03-29T22:55:29.834Z,85.15
2023-03-29T22:57:59.048Z,85.30
2023-03-29T23:00:27.049Z,84.86
2023-03-29T23:02:54.982Z,84.73
2023-03-29T23:05:22.950Z,83.57
2023-03-29T23:07:50.977Z,83.57
2023-03-29T23:10:18.880Z,83.27
2023-03-29T23:12:49.051Z,83.26
2023-03-29T23:15:22.716Z,82.93
2023-03-29T23:17:50.701Z,82.71
2023-03-29T23:20:20.967Z,82.21
2023-03-29T23:22:48.748Z,82.37
2023-03-29T23:25:16.693Z,82.66
2023-03-29T23:27:44.498Z,83.19
2023-03-29T23:30:12.833Z,83.52
2023-03-29T23:32:42.118Z,83.39
2023-03-29T23:35:10.543Z,83.12
2023-03-29T23:37:39.373Z,82.70
2023-03-29T23:40:11.655Z,82.38
2023-03-29T23:42:40.159Z,82.56
2023-03-29T23:45:10.084Z,81.88
2023-03-29T23:47:38.178Z,81.94
2023-03-29T23:50:09.442Z,80.95
2023-03-29T23:52:38.021Z,80.53
2023-03-29T23:55:06.741Z,79.88
2023-03-29T23:57:35.151Z,79.24
